Startpagina
METAR-TAF:

METAR-TAF

Vliegvelden :

Honiara, Guadalcanal, Salomonseilanden

Honiara International Airport

breedte: 09-25S, lengte: 160-03E, hoogte: 8 m

Actueel weer

Dit bericht is 1 uur en het 3 minuten geleden gemaakt, om 09:00 UTC
Wind 6 kt uit het zuidzuidwesten
Temperatuur 28°C
Vochtigheid 70%
Druk 1007 hPa
Zicht 10 km of meer
Weinig wolken op 1800 ft
Heiigheid

METAR: AGGH 190900Z 20006KT 9999 HZ FEW018 28/22 Q1007

Tijdstip: 21:03 (10:03 UTC)

Verwachting

Dit bericht is 5 uur en het 12 minuten geleden gemaakt, om 04:51 UTC
Verwachting geldig van 19 om 06 UTC tot 20 om 06 UTC
Wind 14 kt uit het noorden
Zicht 10 km of meer
Weinig wolken op 1900 ft
Van 19 om 0800 UTC
Wind 3 kt uit variabele richting
Zicht: 1007 m
Weinig wolken op 1700 ft

TAF: AGGH 190451Z 1906/2006 36014KT 9999 FEW019 FM190800 VRB03KT 9999 FEW017 T 29 27 25 24 Q 1005 1007 1008 1007

Waarnemingen en weersverwachtingen van meer dan 4000 vliegvelden (METAR en TAF).

De beschikbare stations zijn de gele en rode punten op de kaart.

Ga met uw muis naar het station om de naam te zien.

Klik dan om waarnemingen en weersverwachtingen te zien.

kaart wijzigen: klik op de groene knoppen met een zwart kruis om in te zoomen, op de groene knop met een streepje om uit te zoomen of op de groene pijlen voor aangrenzende kaarten.


METAR-TAF: